Missouri City, Texas
Current Conditions -  °F | °C
As of 10:22 AM on Thursday 29 Jan 2015 (Local Time) from KSGR Reporting Station
Haze Haze  
Wind Chill: 62°   Ceiling: 200
Heat Index: 62°   Visibility: 2.5mi
Dew Point: 61°   Wind: 0mph
Humidity: 96%   Direction: NA
Pressure: 30.27"   Gusts: NA
Location:  29.61°N, 95.53°W
Report Text: KSGR 291622Z 00000KT 2 1/2SM BR OVC002 17/16 A3027 RMK AO2 VIS 1V5 T01670161
Loading
Personal Weather Stations






























Interactive Weather Map New forecast layout! Learn more

10-Day Weather Forecast

Advertisements
Track Severe Weather on mobile